Airfield :







YOU CAN JOIN US ON...

 
LOGIN :

Register | Disclaimer

   EN    FR    IT 

 









Legend :    VFR   Marginal VFR   IFR   Intensive IFR   Very Intensive IFR
Visi :
Ceiling :
>= 8 km
>= 3000ft
5 to 8 km
1000 to 3000 ft
1500m to 5 km
500 to 1000 ft
800 to 1500m
200 to 500 ft
< 800m
< 200 ft
Symbols :   Thunderstorms  Fog  Heavy snow  Heavy precipitations  Wind > 20 kt






- Airport Elevation : 172 ft
- IATA code : YYY


CYYY - Mont Joli

CURRENT METAR :
  • 211300Z 25017G24KT 30SM FEW040 BKN070 BKN210 05/M00 A2974 RMK SC1AC4CI2 SLP076

EXPIRED METARs :
  • 211200Z 25017G23KT 30SM SCT060 BKN140 BKN240 05/M01 A2973 RMK SC3AC2CI1 SLP073
  • 211100Z 24009KT 30SM FEW140 SCT240 04/M01 A2972 RMK AC2CI1 SLP069
  • 211015Z 22011G17KT 30SM FEW240 03/M01 A2971 RMK CI2 SLP065

TAF AMD TAF CYYY
Valid from the 21 at 11:00 until the 21 at 20:00 UTC


211156Z 2111/2120 26012G22KT P6SM BKN040
TEMPO 2118/2120 P6SM -SHRA RMK NXT FCST BY 211400Z
CZUL FIR / North America



MET'MAP, your aeronautical weather chart ! - Copyright ORBIFLY December 2007 - Disclaimer

ORBIFLY MET'MAP TEAM :

Programming & Development : Alexandra Zaïnal
Original concept : Baudouin d'Aumeries
Technical & hardware support : Manuel Goepfert
Assistance : Marc-Olivier Méhu




SOURCES & CREDITS :

   NOAA